Time;durP1;ratioP1;P1;durP2;ratioP2;P2;SDS_P1;SDS_P2;PMS_P1;PMS_P2;Temp;Humidity;BMP_temperature;BMP_pressure;BME280_temperature;BME280_humidity;BME280_pressure;Samples;Min_cycle;Max_cycle;Signal;HPM_P1;HPM_P2
2023/11/16 00:01:05;;;;;;;7.43;2.40;;;9.70;99.90;;;;;;5069311;28;20444;-76
2023/11/16 00:03:53;;;;;;;5.53;2.30;;;9.80;99.90;;;;;;5067095;28;20613;-77
2023/11/16 00:06:40;;;;;;;6.53;3.10;;;9.80;99.90;;;;;;5061059;28;20795;-76
2023/11/16 00:09:27;;;;;;;10.17;2.80;;;9.80;99.90;;;;;;5066170;28;20945;-76
2023/11/16 00:12:14;;;;;;;6.70;2.20;;;9.80;99.90;;;;;;5062504;28;20521;-77
2023/11/16 00:15:00;;;;;;;7.00;2.40;;;9.80;99.90;;;;;;5064907;28;20548;-76
2023/11/16 00:17:46;;;;;;;8.60;3.17;;;9.80;99.90;;;;;;5064366;28;21024;-74
2023/11/16 00:20:32;;;;;;;7.53;2.67;;;9.80;99.90;;;;;;5063374;28;20446;-76
2023/11/16 00:23:19;;;;;;;10.17;3.23;;;9.90;99.90;;;;;;5063407;28;20514;-77
2023/11/16 00:26:09;;;;;;;5.73;2.77;;;9.80;99.90;;;;;;5060585;28;20473;-77
2023/11/16 00:28:55;;;;;;;8.00;2.33;;;9.70;99.90;;;;;;5066068;28;20450;-77
2023/11/16 00:31:40;;;;;;;6.53;2.77;;;9.70;99.90;;;;;;5065679;28;20458;-76
2023/11/16 00:34:26;;;;;;;7.60;2.40;;;9.70;99.90;;;;;;5067533;28;20457;-77
2023/11/16 00:37:12;;;;;;;11.63;2.70;;;9.70;99.90;;;;;;5069653;28;20467;-76
2023/11/16 00:39:59;;;;;;;9.50;2.70;;;9.60;99.90;;;;;;5068172;28;20435;-75
2023/11/16 00:42:46;;;;;;;5.23;2.63;;;9.60;99.90;;;;;;5067019;28;20468;-77
2023/11/16 00:45:33;;;;;;;8.53;2.70;;;9.60;99.90;;;;;;5069257;28;20453;-76
2023/11/16 00:48:19;;;;;;;6.57;3.07;;;9.50;99.90;;;;;;5059693;28;20419;-77
2023/11/16 00:51:06;;;;;;;5.57;2.83;;;9.50;99.90;;;;;;5063161;28;20675;-76
2023/11/16 00:53:51;;;;;;;9.57;2.60;;;9.50;99.90;;;;;;5059596;28;21158;-77
2023/11/16 00:56:39;;;;;;;5.07;2.50;;;9.50;99.90;;;;;;5066555;28;21155;-76
2023/11/16 00:59:25;;;;;;;7.47;2.50;;;9.50;99.90;;;;;;5061139;28;20958;-77
2023/11/16 01:02:11;;;;;;;3.30;2.50;;;9.50;99.90;;;;;;5066455;28;20469;-76
2023/11/16 01:04:57;;;;;;;8.20;2.50;;;9.50;99.90;;;;;;5061987;28;20447;-75
2023/11/16 01:07:43;;;;;;;5.63;2.60;;;9.50;99.90;;;;;;5058119;28;20469;-77
2023/11/16 01:10:29;;;;;;;4.13;2.47;;;9.60;99.90;;;;;;5062732;28;20444;-75
2023/11/16 01:13:23;;;;;;;8.13;2.77;;;9.50;99.90;;;;;;5066076;28;20441;-76
2023/11/16 01:16:14;;;;;;;5.60;2.50;;;9.60;99.90;;;;;;5066495;28;20560;-76
2023/11/16 01:19:00;;;;;;;12.80;2.63;;;9.50;99.90;;;;;;5061302;28;20865;-77
2023/11/16 01:21:54;;;;;;;10.90;3.30;;;9.50;99.90;;;;;;5062277;28;20587;-74
2023/11/16 01:24:39;;;;;;;5.83;2.90;;;9.40;99.90;;;;;;5063892;28;20455;-76
2023/11/16 01:27:26;;;;;;;9.33;2.60;;;9.40;99.90;;;;;;5064001;28;21007;-76
2023/11/16 01:30:14;;;;;;;4.70;2.10;;;9.30;99.90;;;;;;5069131;28;20481;-77
2023/11/16 01:33:01;;;;;;;10.50;3.00;;;9.30;99.90;;;;;;5070471;28;20486;-76
2023/11/16 01:35:47;;;;;;;6.70;2.47;;;9.20;99.90;;;;;;5067374;28;20422;-76
2023/11/16 01:38:33;;;;;;;7.73;3.27;;;9.20;99.90;;;;;;5065489;28;20429;-77
2023/11/16 01:41:18;;;;;;;7.17;3.07;;;9.10;99.90;;;;;;5070620;28;20437;-76
2023/11/16 01:44:04;;;;;;;7.13;3.00;;;9.10;99.90;;;;;;5069335;28;21064;-75
2023/11/16 01:46:51;;;;;;;10.30;2.43;;;9.00;99.90;;;;;;5067752;28;20441;-77
2023/11/16 01:49:37;;;;;;;12.80;3.30;;;9.00;99.90;;;;;;5070392;28;20427;-77
2023/11/16 01:52:24;;;;;;;6.67;2.27;;;9.00;99.90;;;;;;5070536;28;20432;-76
2023/11/16 01:55:10;;;;;;;6.97;3.47;;;9.00;99.90;;;;;;5068815;28;20433;-76
2023/11/16 01:57:55;;;;;;;4.10;2.50;;;9.10;99.90;;;;;;5070652;28;20443;-77
2023/11/16 02:00:42;;;;;;;5.27;2.33;;;9.00;99.90;;;;;;5069876;28;20785;-76
2023/11/16 02:03:30;;;;;;;10.03;2.90;;;9.00;99.90;;;;;;5067668;28;20552;-76
2023/11/16 02:06:16;;;;;;;12.20;2.70;;;9.00;99.90;;;;;;5074149;28;20462;-76
2023/11/16 02:09:02;;;;;;;9.20;2.80;;;9.00;99.90;;;;;;5074609;28;20430;-77
2023/11/16 02:11:47;;;;;;;4.47;2.70;;;9.00;99.90;;;;;;5071365;28;20431;-76
2023/11/16 02:14:33;;;;;;;5.30;2.30;;;9.00;99.90;;;;;;5071936;28;20439;-77
2023/11/16 02:17:21;;;;;;;9.80;2.53;;;9.00;99.90;;;;;;5070121;28;20466;-77
2023/11/16 02:20:10;;;;;;;4.60;2.17;;;9.00;99.90;;;;;;5073906;28;20485;-75
2023/11/16 02:22:56;;;;;;;9.10;2.83;;;9.10;99.90;;;;;;5070198;28;20556;-77
2023/11/16 02:25:45;;;;;;;4.33;2.27;;;9.20;99.90;;;;;;5072124;28;20581;-76
2023/11/16 02:28:30;;;;;;;7.60;2.40;;;9.20;99.90;;;;;;5065928;28;20596;-77
2023/11/16 02:31:18;;;;;;;5.97;2.50;;;9.30;99.90;;;;;;5067502;28;20443;-76
2023/11/16 02:34:04;;;;;;;9.43;2.40;;;9.30;99.90;;;;;;5067899;28;20450;-77
2023/11/16 02:36:53;;;;;;;9.30;2.73;;;9.30;99.90;;;;;;5068510;28;20804;-75
2023/11/16 02:39:38;;;;;;;9.93;3.07;;;9.30;99.90;;;;;;5061865;28;20463;-76
2023/11/16 02:42:26;;;;;;;8.60;2.93;;;9.30;99.90;;;;;;5067842;28;20970;-77
2023/11/16 02:45:13;;;;;;;7.67;2.93;;;9.30;99.90;;;;;;5068720;28;20489;-75
2023/11/16 02:47:58;;;;;;;10.27;2.60;;;9.30;99.90;;;;;;5065474;28;20479;-77
2023/11/16 02:50:44;;;;;;;10.77;2.60;;;9.30;99.90;;;;;;5071582;28;20510;-76
2023/11/16 02:53:30;;;;;;;6.50;2.30;;;9.30;99.90;;;;;;5068931;28;20449;-77
2023/11/16 02:56:16;;;;;;;7.47;2.10;;;9.40;99.90;;;;;;5070731;28;20654;-76
2023/11/16 02:59:04;;;;;;;4.50;2.23;;;9.40;99.90;;;;;;5069561;28;20459;-76
2023/11/16 03:01:49;;;;;;;7.20;2.57;;;9.40;99.90;;;;;;5066921;28;20575;-76
2023/11/16 03:04:35;;;;;;;5.83;2.23;;;9.40;99.90;;;;;;5067063;28;20481;-75
2023/11/16 03:07:21;;;;;;;6.03;1.93;;;9.30;99.90;;;;;;5070379;28;21026;-77
2023/11/16 03:10:07;;;;;;;8.23;2.77;;;9.30;99.90;;;;;;5070360;28;20443;-76
2023/11/16 03:12:54;;;;;;;7.27;2.77;;;9.30;99.90;;;;;;5070921;28;21073;-76
2023/11/16 03:15:41;;;;;;;7.77;3.20;;;9.40;99.90;;;;;;5070209;28;20828;-76
2023/11/16 03:18:27;;;;;;;6.83;2.50;;;9.50;99.90;;;;;;5067586;28;20439;-73
2023/11/16 03:21:13;;;;;;;6.70;2.10;;;9.50;99.90;;;;;;5065716;28;20591;-76
2023/11/16 03:23:59;;;;;;;7.30;2.30;;;9.50;99.90;;;;;;5065239;28;20477;-76
2023/11/16 03:26:45;;;;;;;10.90;2.30;;;9.50;99.90;;;;;;5067601;28;20480;-76
2023/11/16 03:29:34;;;;;;;4.77;2.40;;;9.40;99.90;;;;;;5066723;28;20465;-76
2023/11/16 03:32:20;;;;;;;5.80;2.67;;;9.30;99.90;;;;;;5064370;28;20593;-75
2023/11/16 03:35:06;;;;;;;10.03;2.90;;;9.30;99.90;;;;;;5066887;28;20455;-75
2023/11/16 03:37:53;;;;;;;6.33;2.50;;;9.40;99.90;;;;;;5065109;28;20490;-75
2023/11/16 03:40:38;;;;;;;5.90;2.47;;;9.40;99.90;;;;;;5064021;28;20451;-76
2023/11/16 03:43:24;;;;;;;9.80;2.70;;;9.50;99.90;;;;;;5066169;28;20448;-77
2023/11/16 03:46:10;;;;;;;8.63;2.63;;;9.40;99.90;;;;;;5070595;28;21002;-76
2023/11/16 03:48:57;;;;;;;10.90;3.40;;;9.40;99.90;;;;;;5069664;28;20451;-76
2023/11/16 03:51:42;;;;;;;6.30;2.80;;;9.30;99.90;;;;;;5066691;28;20446;-76
2023/11/16 03:54:28;;;;;;;5.70;2.30;;;9.20;99.90;;;;;;5063142;28;20958;-76
2023/11/16 03:57:13;;;;;;;7.83;2.70;;;9.20;99.90;;;;;;5066295;28;20466;-77
2023/11/16 03:59:59;;;;;;;11.90;3.40;;;9.20;99.90;;;;;;5064060;28;20436;-77
2023/11/16 04:02:45;;;;;;;13.57;2.93;;;9.30;99.90;;;;;;5062563;28;20443;-75
2023/11/16 04:05:32;;;;;;;8.63;2.73;;;9.30;99.90;;;;;;5066810;28;20447;-74
2023/11/16 04:08:18;;;;;;;10.13;2.63;;;9.30;99.90;;;;;;5065911;28;20431;-76
2023/11/16 04:11:05;;;;;;;7.47;2.80;;;9.30;99.90;;;;;;5066230;28;20977;-77
2023/11/16 04:13:50;;;;;;;8.40;2.77;;;9.30;99.90;;;;;;5065609;28;20454;-77
2023/11/16 04:16:36;;;;;;;5.73;2.83;;;9.40;99.90;;;;;;5063585;28;20470;-77
2023/11/16 04:19:25;;;;;;;6.70;2.80;;;9.40;99.90;;;;;;5068711;28;20433;-77
2023/11/16 04:22:12;;;;;;;4.67;2.70;;;9.50;99.90;;;;;;5068681;28;20449;-77
2023/11/16 04:24:57;;;;;;;14.27;3.17;;;9.40;99.90;;;;;;5063945;28;20960;-77
2023/11/16 04:27:45;;;;;;;10.60;2.90;;;9.30;99.90;;;;;;5065669;28;20473;-77
2023/11/16 04:30:31;;;;;;;10.23;3.47;;;9.30;99.90;;;;;;5064903;28;20818;-77
2023/11/16 04:33:17;;;;;;;14.37;3.90;;;9.30;99.90;;;;;;5066337;28;20950;-76
2023/11/16 04:36:05;;;;;;;9.20;3.30;;;9.20;99.90;;;;;;5067337;28;20474;-76
2023/11/16 04:38:55;;;;;;;5.20;3.10;;;9.20;99.90;;;;;;5062555;28;20449;-77
2023/11/16 04:41:45;;;;;;;7.37;2.60;;;9.20;99.90;;;;;;5065557;28;20443;-77
2023/11/16 04:44:32;;;;;;;7.37;3.27;;;9.20;99.90;;;;;;5065837;28;20477;-77
2023/11/16 04:47:17;;;;;;;6.30;2.87;;;9.00;99.90;;;;;;5063998;28;20474;-77
2023/11/16 04:50:06;;;;;;;7.67;2.93;;;9.10;99.90;;;;;;5065841;28;20450;-76
2023/11/16 04:52:54;;;;;;;7.67;2.90;;;9.10;99.90;;;;;;5065879;28;20445;-75
2023/11/16 04:55:41;;;;;;;8.63;2.93;;;9.10;99.90;;;;;;5066532;28;21037;-76
2023/11/16 04:58:27;;;;;;;11.10;3.23;;;9.10;99.90;;;;;;5066107;28;20440;-76
2023/11/16 05:01:15;;;;;;;10.23;2.93;;;9.10;99.90;;;;;;5068308;28;20466;-77
2023/11/16 05:04:01;;;;;;;6.80;2.73;;;9.00;99.90;;;;;;5059239;28;20469;-77
2023/11/16 05:06:47;;;;;;;6.73;3.23;;;9.00;99.90;;;;;;5054973;28;20466;-77
2023/11/16 05:09:33;;;;;;;6.60;2.63;;;8.90;99.90;;;;;;5059579;28;20475;-77
2023/11/16 05:12:21;;;;;;;10.60;3.10;;;8.90;99.90;;;;;;5066660;28;20928;-77
2023/11/16 05:15:08;;;;;;;7.83;3.03;;;8.90;99.90;;;;;;5065858;28;20798;-76
2023/11/16 05:17:54;;;;;;;7.00;2.53;;;8.90;99.90;;;;;;5064854;28;20499;-76
2023/11/16 05:20:40;;;;;;;11.97;2.83;;;8.90;99.90;;;;;;5055803;28;20464;-76
2023/11/16 05:23:25;;;;;;;6.30;2.77;;;9.00;99.90;;;;;;5054793;28;20449;-76
2023/11/16 05:26:11;;;;;;;11.83;2.60;;;9.00;99.90;;;;;;5054270;28;20458;-76
2023/11/16 05:28:58;;;;;;;8.23;2.53;;;9.00;99.90;;;;;;5066026;28;20567;-75
2023/11/16 05:31:43;;;;;;;8.73;2.60;;;9.00;99.90;;;;;;5065586;28;20518;-77
2023/11/16 05:34:29;;;;;;;4.33;2.10;;;9.00;99.90;;;;;;5061862;28;20448;-73
2023/11/16 05:37:15;;;;;;;5.53;3.00;;;9.00;99.90;;;;;;5065192;28;20595;-76
2023/11/16 05:40:03;;;;;;;5.53;2.20;;;8.90;99.90;;;;;;5064183;28;20441;-76
2023/11/16 05:42:49;;;;;;;10.97;2.80;;;8.90;99.90;;;;;;5061815;28;20480;-75
2023/11/16 05:45:36;;;;;;;5.43;2.23;;;8.90;99.90;;;;;;5066774;28;20486;-75
2023/11/16 05:48:21;;;;;;;6.83;2.10;;;8.90;99.90;;;;;;5061329;28;20492;-74
2023/11/16 05:51:07;;;;;;;8.57;2.70;;;9.00;99.90;;;;;;5065092;28;20433;-75
2023/11/16 05:53:53;;;;;;;7.47;2.77;;;9.00;99.90;;;;;;5064118;28;20442;-76
2023/11/16 05:56:45;;;;;;;9.90;3.10;;;9.10;99.90;;;;;;5062850;28;20503;-77
2023/11/16 05:59:30;;;;;;;9.50;3.10;;;9.00;99.90;;;;;;5063947;28;20828;-76
2023/11/16 06:02:18;;;;;;;5.53;2.90;;;9.00;99.90;;;;;;5064936;28;20446;-77
2023/11/16 06:05:04;;;;;;;15.20;2.50;;;9.00;99.90;;;;;;5064648;28;20470;-76
2023/11/16 06:07:50;;;;;;;10.83;3.37;;;9.00;99.90;;;;;;5063716;28;20602;-77
2023/11/16 06:10:36;;;;;;;9.43;2.47;;;9.00;99.90;;;;;;5060443;28;20569;-75
2023/11/16 06:13:22;;;;;;;7.20;2.30;;;9.00;99.90;;;;;;5063988;28;20570;-76
2023/11/16 06:16:08;;;;;;;14.80;5.03;;;9.00;99.90;;;;;;5066579;28;20636;-75
2023/11/16 06:18:57;;;;;;;17.40;8.60;;;9.00;99.90;;;;;;5061427;28;20587;-75
2023/11/16 06:21:43;;;;;;;19.40;8.03;;;9.10;99.90;;;;;;5059622;28;20574;-77
2023/11/16 06:24:29;;;;;;;14.03;4.20;;;9.10;99.90;;;;;;5064561;28;20581;-76
2023/11/16 06:27:14;;;;;;;5.13;2.73;;;9.10;99.90;;;;;;5060894;28;20513;-77
2023/11/16 06:30:00;;;;;;;10.23;3.07;;;9.10;99.90;;;;;;5066700;28;20487;-74
2023/11/16 06:32:47;;;;;;;6.00;2.17;;;9.00;99.90;;;;;;5065575;28;20460;-77
2023/11/16 06:35:34;;;;;;;9.03;3.30;;;9.00;99.90;;;;;;5063688;28;20520;-77
2023/11/16 06:38:19;;;;;;;8.63;3.40;;;8.90;99.90;;;;;;5064038;28;20461;-77
2023/11/16 06:41:06;;;;;;;5.80;2.70;;;8.90;99.90;;;;;;5063417;28;20457;-77
2023/11/16 06:43:53;;;;;;;8.40;3.10;;;8.90;99.90;;;;;;5063226;28;20468;-77
2023/11/16 06:46:39;;;;;;;6.30;2.47;;;8.90;99.90;;;;;;5065944;28;20552;-76
2023/11/16 06:49:26;;;;;;;7.60;2.70;;;8.90;99.90;;;;;;5067665;28;20454;-76
2023/11/16 06:52:13;;;;;;;16.10;3.03;;;9.00;99.90;;;;;;5070271;28;20443;-77
2023/11/16 06:55:00;;;;;;;8.23;3.20;;;9.00;99.90;;;;;;5069101;28;20445;-77
2023/11/16 06:57:47;;;;;;;4.63;2.20;;;9.00;99.90;;;;;;5070035;28;20491;-76
2023/11/16 07:00:32;;;;;;;9.00;2.83;;;9.10;99.90;;;;;;5069605;28;20435;-77
2023/11/16 07:03:19;;;;;;;9.63;2.67;;;9.00;99.90;;;;;;5066095;28;20453;-77
2023/11/16 07:06:06;;;;;;;12.60;3.73;;;9.00;99.90;;;;;;5068018;28;20501;-76
2023/11/16 07:08:53;;;;;;;17.40;4.50;;;8.90;99.90;;;;;;5070060;28;20458;-77
2023/11/16 07:11:39;;;;;;;10.27;3.63;;;9.00;99.90;;;;;;5067381;28;20442;-77
2023/11/16 07:14:25;;;;;;;13.77;4.30;;;9.00;99.90;;;;;;5070322;28;20465;-77
2023/11/16 07:17:11;;;;;;;10.13;3.50;;;9.00;99.90;;;;;;5071118;28;20537;-77
2023/11/16 07:19:57;;;;;;;8.23;4.00;;;9.00;99.90;;;;;;5068105;28;20510;-77
2023/11/16 07:22:43;;;;;;;7.70;3.80;;;8.90;99.90;;;;;;5056795;28;20450;-77
2023/11/16 07:25:30;;;;;;;7.80;3.70;;;8.90;99.90;;;;;;5061478;28;20472;-77
2023/11/16 07:28:16;;;;;;;10.70;3.27;;;8.90;99.90;;;;;;5064806;28;21125;-76
2023/11/16 07:31:02;;;;;;;10.57;4.03;;;9.00;99.90;;;;;;5069179;28;20510;-76
2023/11/16 07:33:51;;;;;;;8.53;3.90;;;8.80;99.90;;;;;;5062551;28;20447;-75
2023/11/16 07:36:37;;;;;;;9.70;4.00;;;8.90;99.90;;;;;;5065199;28;20471;-77
2023/11/16 07:39:24;;;;;;;6.63;3.50;;;9.00;99.90;;;;;;5069398;28;20450;-76
2023/11/16 07:42:12;;;;;;;15.03;4.23;;;9.10;99.90;;;;;;5070108;28;20530;-76
2023/11/16 07:44:59;;;;;;;7.50;3.77;;;9.10;99.90;;;;;;5067573;28;20599;-77
2023/11/16 07:47:47;;;;;;;9.67;4.20;;;9.20;99.90;;;;;;5067314;28;20605;-76
2023/11/16 07:50:32;;;;;;;16.30;3.97;;;9.30;99.90;;;;;;5066397;28;20443;-77
2023/11/16 07:53:18;;;;;;;6.30;3.50;;;9.40;99.90;;;;;;5067501;28;20441;-76
2023/11/16 07:56:06;;;;;;;9.20;3.30;;;9.40;99.90;;;;;;5068101;28;20605;-74
2023/11/16 07:58:53;;;;;;;8.77;3.23;;;9.40;99.90;;;;;;5065024;28;20505;-75
2023/11/16 08:01:49;;;;;;;9.20;3.83;;;9.40;99.90;;;;;;5063149;28;21012;-77
2023/11/16 08:04:34;;;;;;;9.93;3.70;;;9.40;99.90;;;;;;5070911;28;20488;-76
2023/11/16 08:07:23;;;;;;;7.90;3.67;;;9.40;99.90;;;;;;5068305;28;20460;-76
2023/11/16 08:10:09;;;;;;;7.43;3.80;;;9.40;99.90;;;;;;5065741;28;20989;-77
2023/11/16 08:12:56;;;;;;;9.23;4.13;;;9.40;99.90;;;;;;5068548;28;20453;-76
2023/11/16 08:15:43;;;;;;;5.17;3.10;;;9.50;99.90;;;;;;5068891;28;20478;-75
2023/11/16 08:18:29;;;;;;;12.90;3.60;;;9.50;99.90;;;;;;5065702;28;20506;-76
2023/11/16 08:21:15;;;;;;;15.07;4.10;;;9.50;99.90;;;;;;5070368;28;20580;-76
2023/11/16 08:24:00;;;;;;;11.40;4.43;;;9.50;99.90;;;;;;5064406;28;20525;-75
2023/11/16 08:26:47;;;;;;;6.60;3.17;;;9.60;99.90;;;;;;5062920;28;20486;-75
2023/11/16 08:29:32;;;;;;;7.17;3.20;;;9.60;99.90;;;;;;5064494;28;20448;-75
2023/11/16 08:32:20;;;;;;;9.33;3.90;;;9.60;99.90;;;;;;5068014;28;20453;-77
2023/11/16 08:35:06;;;;;;;6.23;3.37;;;9.70;99.90;;;;;;5069155;28;20534;-76
2023/11/16 08:37:53;;;;;;;12.43;3.07;;;9.70;99.90;;;;;;5067058;28;20453;-75
2023/11/16 08:40:39;;;;;;;14.90;3.50;;;9.80;99.90;;;;;;5067143;28;20526;-75
2023/11/16 08:43:27;;;;;;;11.57;4.33;;;9.80;99.90;;;;;;5068448;28;20449;-76
2023/11/16 08:46:20;;;;;;;6.60;3.37;;;9.90;99.90;;;;;;5066021;28;20484;-77
2023/11/16 08:49:07;;;;;;;15.30;4.07;;;9.90;99.90;;;;;;5068730;28;20989;-77
2023/11/16 08:51:58;;;;;;;9.50;3.93;;;9.90;99.90;;;;;;5069001;28;20441;-76
2023/11/16 08:54:43;;;;;;;7.13;3.60;;;9.90;99.90;;;;;;5066274;28;20450;-75
2023/11/16 08:57:29;;;;;;;9.10;4.23;;;10.00;99.90;;;;;;5067390;28;20484;-75
2023/11/16 09:00:33;;;;;;;14.47;3.83;;;10.10;99.90;;;;;;5063008;28;20498;-76
2023/11/16 09:03:19;;;;;;;7.03;3.27;;;10.10;99.90;;;;;;5067846;28;20490;-78
2023/11/16 09:06:07;;;;;;;12.00;3.80;;;10.20;99.90;;;;;;5054766;28;20485;-76
2023/11/16 09:08:56;;;;;;;16.80;4.63;;;10.20;99.90;;;;;;5053406;28;20447;-76
2023/11/16 09:11:41;;;;;;;16.50;4.50;;;10.30;99.90;;;;;;5058721;28;20466;-76
2023/11/16 09:14:28;;;;;;;8.40;3.53;;;10.30;99.90;;;;;;5062440;28;20446;-76
2023/11/16 09:17:18;;;;;;;9.47;3.87;;;10.40;99.90;;;;;;5067743;28;20475;-75
2023/11/16 09:20:09;;;;;;;11.67;3.33;;;10.40;99.90;;;;;;5066528;28;20591;-74
2023/11/16 09:22:58;;;;;;;7.00;3.13;;;10.40;99.90;;;;;;5068029;28;20428;-74
2023/11/16 09:25:45;;;;;;;8.30;3.87;;;10.30;99.90;;;;;;5068885;28;20515;-75
2023/11/16 09:28:35;;;;;;;10.20;3.23;;;10.30;99.90;;;;;;5062803;28;20994;-74
2023/11/16 09:31:21;;;;;;;7.23;2.60;;;10.30;99.90;;;;;;5066942;28;20445;-74
2023/11/16 09:34:07;;;;;;;15.60;3.43;;;10.30;99.90;;;;;;5064164;28;20812;-74
2023/11/16 09:36:52;;;;;;;15.27;2.97;;;10.40;99.90;;;;;;5066435;28;20880;-74
2023/11/16 09:39:39;;;;;;;20.53;3.83;;;10.40;99.90;;;;;;5067028;28;21194;-74
2023/11/16 09:42:31;;;;;;;7.37;3.00;;;10.50;99.90;;;;;;5059932;28;20807;-74
2023/11/16 09:45:20;;;;;;;8.20;3.63;;;10.50;99.90;;;;;;5057629;28;20482;-74
2023/11/16 09:48:10;;;;;;;9.63;3.17;;;10.50;99.90;;;;;;5067344;28;20457;-74
2023/11/16 09:50:56;;;;;;;19.63;4.87;;;10.60;99.90;;;;;;5066364;28;20450;-74
2023/11/16 09:53:43;;;;;;;10.97;2.80;;;10.60;99.90;;;;;;5065872;28;20527;-75
2023/11/16 09:56:31;;;;;;;6.53;2.97;;;10.60;99.90;;;;;;5066284;28;21187;-74
2023/11/16 09:59:27;;;;;;;9.10;3.00;;;10.60;99.90;;;;;;5066489;28;20445;-75
2023/11/16 10:02:18;;;;;;;7.60;3.87;;;10.60;99.90;;;;;;5066738;28;20458;-75
2023/11/16 10:05:27;;;;;;;10.33;3.90;;;10.60;99.90;;;;;;5058618;28;20546;-75
2023/11/16 10:08:14;;;;;;;10.93;2.90;;;10.70;99.90;;;;;;5064506;28;20454;-74
2023/11/16 10:11:02;;;;;;;7.10;3.67;;;10.70;99.90;;;;;;5064085;28;20461;-74
2023/11/16 10:13:54;;;;;;;6.60;2.80;;;10.70;99.90;;;;;;5067540;28;20533;-75
2023/11/16 10:16:40;;;;;;;6.10;2.80;;;10.70;99.90;;;;;;5067952;28;20469;-74
2023/11/16 10:19:26;;;;;;;7.20;3.07;;;10.60;99.90;;;;;;5063809;28;20584;-75
2023/11/16 10:22:12;;;;;;;7.47;2.80;;;10.60;99.90;;;;;;5066141;28;20448;-74
2023/11/16 10:25:00;;;;;;;10.27;2.93;;;10.70;99.90;;;;;;5064766;28;20469;-74
2023/11/16 10:27:46;;;;;;;9.43;3.10;;;10.60;99.90;;;;;;5068856;28;20822;-75
2023/11/16 10:30:37;;;;;;;14.67;4.43;;;10.60;99.90;;;;;;5071060;28;20461;-74
2023/11/16 10:33:24;;;;;;;7.93;3.40;;;10.60;99.90;;;;;;5068334;28;20460;-74
2023/11/16 10:36:11;;;;;;;12.30;3.43;;;10.60;99.90;;;;;;5071598;28;20520;-74
2023/11/16 10:38:58;;;;;;;7.07;4.23;;;10.60;99.90;;;;;;5071361;28;20507;-75
2023/11/16 10:41:44;;;;;;;17.30;4.60;;;10.60;99.90;;;;;;5068712;28;20488;-75
2023/11/16 10:44:31;;;;;;;10.70;3.47;;;10.50;99.90;;;;;;5066063;28;20967;-74
2023/11/16 10:47:20;;;;;;;10.63;4.20;;;10.50;99.90;;;;;;5071563;28;21013;-74
2023/11/16 10:50:10;;;;;;;7.30;3.30;;;10.50;99.90;;;;;;5071174;28;20950;-74
2023/11/16 10:52:56;;;;;;;6.03;3.17;;;10.50;99.90;;;;;;5071321;28;20453;-74
2023/11/16 10:55:44;;;;;;;7.90;3.30;;;10.50;99.90;;;;;;5069223;28;20560;-74
2023/11/16 10:58:31;;;;;;;5.30;3.17;;;10.50;99.90;;;;;;5066522;28;20527;-75
2023/11/16 11:01:18;;;;;;;11.00;3.57;;;10.60;99.90;;;;;;5069315;28;20444;-75
2023/11/16 11:04:06;;;;;;;5.50;3.10;;;10.60;99.90;;;;;;5069579;28;20532;-75
2023/11/16 11:06:55;;;;;;;11.30;4.10;;;10.60;99.90;;;;;;5064148;28;21061;-75
2023/11/16 11:09:42;;;;;;;9.07;3.70;;;10.60;99.90;;;;;;5066689;28;20447;-74
2023/11/16 11:12:28;;;;;;;14.10;3.37;;;10.50;99.90;;;;;;5068615;28;21038;-75
2023/11/16 11:15:24;;;;;;;7.43;3.27;;;10.50;99.90;;;;;;5072556;28;20904;-74
2023/11/16 11:18:12;;;;;;;10.20;3.07;;;10.60;99.90;;;;;;5066016;28;20429;-74
2023/11/16 11:21:08;;;;;;;12.93;3.20;;;10.50;99.90;;;;;;5072012;28;20433;-75
2023/11/16 11:24:04;;;;;;;7.93;3.40;;;10.50;99.90;;;;;;5072942;28;20429;-74
2023/11/16 11:26:51;;;;;;;7.73;3.70;;;10.50;99.90;;;;;;5072921;28;20490;-74
2023/11/16 11:29:37;;;;;;;9.90;5.30;;;10.50;99.90;;;;;;5073237;28;20422;-74
2023/11/16 11:32:29;;;;;;;13.43;4.20;;;10.50;99.90;;;;;;5066504;28;20437;-74
2023/11/16 11:35:15;;;;;;;9.73;4.00;;;10.40;99.90;;;;;;5071989;28;20424;-74
2023/11/16 11:38:03;;;;;;;6.87;3.70;;;10.40;99.90;;;;;;5071690;28;20434;-74
2023/11/16 11:40:56;;;;;;;6.13;3.53;;;10.50;99.90;;;;;;5064016;28;20449;-74
2023/11/16 11:43:44;;;;;;;8.40;4.10;;;10.50;99.90;;;;;;5063138;28;20425;-74
2023/11/16 11:46:29;;;;;;;10.10;4.30;;;10.50;99.90;;;;;;5060734;28;20473;-74
2023/11/16 11:49:15;;;;;;;15.33;4.00;;;10.50;99.90;;;;;;5067146;28;20560;-74
2023/11/16 11:52:01;;;;;;;8.70;3.47;;;10.60;99.90;;;;;;5071675;28;20488;-74
2023/11/16 11:54:48;;;;;;;8.30;4.07;;;10.60;99.90;;;;;;5069085;28;20482;-74
2023/11/16 11:57:34;;;;;;;5.70;3.40;;;10.60;99.90;;;;;;5067609;28;20527;-74
2023/11/16 12:00:22;;;;;;;6.97;3.27;;;10.60;99.90;;;;;;5065246;28;20956;-74
2023/11/16 12:03:08;;;;;;;7.80;3.20;;;10.60;99.90;;;;;;5072043;28;20452;-74
2023/11/16 12:05:58;;;;;;;11.63;4.33;;;10.50;99.90;;;;;;5061550;28;20565;-74
2023/11/16 12:08:46;;;;;;;13.53;3.67;;;10.50;99.90;;;;;;5058768;28;20557;-74
2023/11/16 12:11:32;;;;;;;5.13;2.97;;;10.50;99.90;;;;;;5064173;28;20466;-74
2023/11/16 12:14:18;;;;;;;5.70;3.37;;;10.50;99.90;;;;;;5062291;28;20425;-74
2023/11/16 12:17:04;;;;;;;9.50;3.70;;;10.40;99.90;;;;;;5072324;28;20469;-74
2023/11/16 12:19:52;;;;;;;12.13;3.50;;;10.40;99.90;;;;;;5071627;28;20453;-74
2023/11/16 12:22:37;;;;;;;11.50;3.63;;;10.50;99.90;;;;;;5067766;28;20800;-74
2023/11/16 12:25:24;;;;;;;10.67;3.60;;;10.50;99.90;;;;;;5064683;28;20830;-74
2023/11/16 12:28:11;;;;;;;8.03;2.87;;;10.50;99.90;;;;;;5071706;28;20959;-74
2023/11/16 12:30:59;;;;;;;10.10;3.43;;;10.50;99.90;;;;;;5072122;28;20449;-74
2023/11/16 12:33:46;;;;;;;8.63;3.90;;;10.30;99.90;;;;;;5062832;28;20426;-74
2023/11/16 12:36:35;;;;;;;9.30;3.80;;;10.20;99.90;;;;;;5065923;28;20457;-74
2023/11/16 12:39:25;;;;;;;7.97;3.30;;;10.20;99.90;;;;;;5070335;28;20528;-75
2023/11/16 12:42:11;;;;;;;14.57;3.60;;;10.10;99.90;;;;;;5065392;28;22120;-74
2023/11/16 12:44:58;;;;;;;6.03;3.20;;;10.20;99.90;;;;;;5069348;28;20453;-74
2023/11/16 12:47:44;;;;;;;6.33;3.10;;;10.10;99.90;;;;;;5067156;28;20438;-74
2023/11/16 12:50:29;;;;;;;10.30;4.27;;;10.10;99.90;;;;;;5071738;28;20490;-74
2023/11/16 12:53:15;;;;;;;9.93;4.03;;;10.10;99.90;;;;;;5071700;28;20427;-74
2023/11/16 12:56:01;;;;;;;7.70;3.47;;;10.10;99.90;;;;;;5070976;28;20444;-74
2023/11/16 12:58:47;;;;;;;8.47;3.90;;;10.20;99.90;;;;;;5066359;28;20423;-74
2023/11/16 13:01:34;;;;;;;29.17;4.03;;;10.10;99.90;;;;;;5064510;28;20984;-74
2023/11/16 13:04:19;;;;;;;8.93;3.70;;;10.20;99.90;;;;;;5067957;28;20441;-74
2023/11/16 13:07:05;;;;;;;11.57;4.47;;;10.10;99.90;;;;;;5065360;28;20480;-74
2023/11/16 13:09:51;;;;;;;9.00;4.10;;;10.10;99.90;;;;;;5064911;28;20544;-74
2023/11/16 13:12:37;;;;;;;8.77;4.63;;;10.20;99.90;;;;;;5063871;28;20871;-74
2023/11/16 13:15:22;;;;;;;9.67;5.27;;;10.20;99.90;;;;;;5062512;28;20973;-74
2023/11/16 13:18:11;;;;;;;15.13;5.77;;;10.20;99.90;;;;;;5067303;28;20441;-74
2023/11/16 13:20:57;;;;;;;13.30;5.83;;;10.30;99.90;;;;;;5063295;28;20448;-74
2023/11/16 13:23:43;;;;;;;8.70;5.90;;;10.20;99.90;;;;;;5064208;28;20527;-74
2023/11/16 13:26:28;;;;;;;16.43;6.43;;;10.30;99.90;;;;;;5063487;28;20473;-74
2023/11/16 13:29:14;;;;;;;10.33;6.67;;;10.30;99.90;;;;;;5066408;28;20444;-74
2023/11/16 13:32:00;;;;;;;14.50;6.83;;;10.30;99.90;;;;;;5066674;28;20441;-74
2023/11/16 13:34:48;;;;;;;14.60;6.90;;;10.10;99.90;;;;;;5066311;28;20419;-74
2023/11/16 13:37:33;;;;;;;9.83;6.23;;;10.10;99.90;;;;;;5064467;28;20473;-74
2023/11/16 13:40:19;;;;;;;8.97;5.07;;;10.20;99.90;;;;;;5061910;28;20867;-74
2023/11/16 13:43:04;;;;;;;13.30;5.27;;;10.20;99.90;;;;;;5060389;28;20445;-74
2023/11/16 13:45:50;;;;;;;10.97;5.17;;;10.20;99.90;;;;;;5063596;28;20446;-74
2023/11/16 13:48:36;;;;;;;14.07;5.40;;;10.20;99.90;;;;;;5063435;28;20518;-74
2023/11/16 13:51:23;;;;;;;13.17;5.53;;;10.20;99.90;;;;;;5063170;28;20441;-74
2023/11/16 13:54:09;;;;;;;13.83;5.03;;;10.20;99.90;;;;;;5063470;28;20553;-74
2023/11/16 13:56:55;;;;;;;11.57;6.80;;;10.30;99.90;;;;;;5066947;28;21071;-74
2023/11/16 13:59:41;;;;;;;13.60;5.90;;;10.40;99.90;;;;;;5064246;28;21171;-74
2023/11/16 14:02:27;;;;;;;16.73;6.43;;;10.30;99.90;;;;;;5063087;28;20445;-74
2023/11/16 14:05:13;;;;;;;8.20;5.30;;;10.30;99.90;;;;;;5058260;28;20453;-74
2023/11/16 14:07:59;;;;;;;10.27;5.90;;;10.30;99.90;;;;;;5061721;28;20481;-74
2023/11/16 14:10:45;;;;;;;15.87;9.60;;;10.20;99.90;;;;;;5060046;28;20441;-74
2023/11/16 14:13:30;;;;;;;10.73;6.77;;;10.20;99.90;;;;;;5067965;28;20761;-74
2023/11/16 14:16:16;;;;;;;10.90;5.60;;;10.20;99.90;;;;;;5065856;28;20550;-74
2023/11/16 14:19:02;;;;;;;10.73;5.30;;;10.10;99.90;;;;;;5066872;28;20441;-74
2023/11/16 14:21:48;;;;;;;9.80;4.90;;;10.10;99.90;;;;;;5065600;28;20445;-74
2023/11/16 14:24:36;;;;;;;11.07;5.13;;;10.10;99.90;;;;;;5063067;28;20936;-74
2023/11/16 14:27:23;;;;;;;9.70;4.50;;;10.00;99.90;;;;;;5064739;28;20487;-74
2023/11/16 14:30:09;;;;;;;8.43;4.77;;;10.10;99.90;;;;;;5060226;28;20452;-75
2023/11/16 14:32:54;;;;;;;12.33;5.13;;;10.10;99.90;;;;;;5062269;28;20453;-74